sensor_id;sensor_type;location;lat;lon;timestamp;P1;durP1;ratioP1;P2;durP2;ratioP2
10963;SDS011;5534;48.784;9.190;2022-12-07T00:01:41;6.63;;;3.97;;
10963;SDS011;5534;48.784;9.190;2022-12-07T00:04:13;4.23;;;3.40;;
10963;SDS011;5534;48.784;9.190;2022-12-07T00:06:45;7.87;;;3.67;;
10963;SDS011;5534;48.784;9.190;2022-12-07T00:09:16;6.47;;;4.13;;
10963;SDS011;5534;48.784;9.190;2022-12-07T00:11:42;5.47;;;3.90;;
10963;SDS011;5534;48.784;9.190;2022-12-07T00:14:12;5.67;;;3.67;;
10963;SDS011;5534;48.784;9.190;2022-12-07T00:16:39;5.03;;;3.90;;
10963;SDS011;5534;48.784;9.190;2022-12-07T00:19:06;5.00;;;4.10;;
10963;SDS011;5534;48.784;9.190;2022-12-07T00:21:35;5.77;;;4.13;;
10963;SDS011;5534;48.784;9.190;2022-12-07T00:24:02;6.67;;;4.37;;
10963;SDS011;5534;48.784;9.190;2022-12-07T00:26:30;6.93;;;3.93;;
10963;SDS011;5534;48.784;9.190;2022-12-07T00:28:58;7.87;;;4.03;;
10963;SDS011;5534;48.784;9.190;2022-12-07T00:31:31;6.37;;;4.73;;
10963;SDS011;5534;48.784;9.190;2022-12-07T00:34:04;5.90;;;4.13;;
10963;SDS011;5534;48.784;9.190;2022-12-07T00:36:31;6.43;;;4.40;;
10963;SDS011;5534;48.784;9.190;2022-12-07T00:38:59;6.03;;;4.30;;
10963;SDS011;5534;48.784;9.190;2022-12-07T00:41:27;6.03;;;4.53;;
10963;SDS011;5534;48.784;9.190;2022-12-07T00:43:54;6.23;;;4.63;;
10963;SDS011;5534;48.784;9.190;2022-12-07T00:46:21;5.93;;;4.30;;
10963;SDS011;5534;48.784;9.190;2022-12-07T00:48:51;6.73;;;4.47;;
10963;SDS011;5534;48.784;9.190;2022-12-07T00:51:18;4.93;;;4.33;;
10963;SDS011;5534;48.784;9.190;2022-12-07T00:53:46;5.77;;;4.23;;
10963;SDS011;5534;48.784;9.190;2022-12-07T00:56:16;7.37;;;4.60;;
10963;SDS011;5534;48.784;9.190;2022-12-07T00:59:18;10.43;;;5.23;;
10963;SDS011;5534;48.784;9.190;2022-12-07T01:01:38;5.83;;;4.73;;
10963;SDS011;5534;48.784;9.190;2022-12-07T01:04:04;5.67;;;4.23;;
10963;SDS011;5534;48.784;9.190;2022-12-07T01:06:30;6.50;;;4.93;;
10963;SDS011;5534;48.784;9.190;2022-12-07T01:09:00;7.50;;;4.93;;
10963;SDS011;5534;48.784;9.190;2022-12-07T01:11:27;6.47;;;5.03;;
10963;SDS011;5534;48.784;9.190;2022-12-07T01:13:55;7.50;;;5.53;;
10963;SDS011;5534;48.784;9.190;2022-12-07T01:16:22;7.73;;;5.77;;
10963;SDS011;5534;48.784;9.190;2022-12-07T01:18:51;6.93;;;5.03;;
10963;SDS011;5534;48.784;9.190;2022-12-07T01:21:22;7.47;;;5.40;;
10963;SDS011;5534;48.784;9.190;2022-12-07T01:23:50;8.43;;;5.47;;
10963;SDS011;5534;48.784;9.190;2022-12-07T01:26:18;8.77;;;5.63;;
10963;SDS011;5534;48.784;9.190;2022-12-07T01:28:48;8.10;;;5.07;;
10963;SDS011;5534;48.784;9.190;2022-12-07T01:31:16;8.37;;;5.20;;
10963;SDS011;5534;48.784;9.190;2022-12-07T01:33:45;7.27;;;5.37;;
10963;SDS011;5534;48.784;9.190;2022-12-07T01:38:44;8.57;;;5.83;;
10963;SDS011;5534;48.784;9.190;2022-12-07T01:41:11;7.07;;;5.73;;
10963;SDS011;5534;48.784;9.190;2022-12-07T01:44:07;8.77;;;5.63;;
10963;SDS011;5534;48.784;9.190;2022-12-07T01:46:45;8.37;;;5.80;;
10963;SDS011;5534;48.784;9.190;2022-12-07T01:49:21;7.13;;;5.20;;
10963;SDS011;5534;48.784;9.190;2022-12-07T01:52:15;6.20;;;4.30;;
10963;SDS011;5534;48.784;9.190;2022-12-07T01:54:40;8.13;;;5.63;;
10963;SDS011;5534;48.784;9.190;2022-12-07T01:57:07;8.23;;;5.00;;
10963;SDS011;5534;48.784;9.190;2022-12-07T01:59:33;9.60;;;4.87;;
10963;SDS011;5534;48.784;9.190;2022-12-07T02:02:00;5.60;;;4.27;;
10963;SDS011;5534;48.784;9.190;2022-12-07T02:04:29;8.60;;;4.80;;
10963;SDS011;5534;48.784;9.190;2022-12-07T02:06:55;9.13;;;5.27;;
10963;SDS011;5534;48.784;9.190;2022-12-07T02:09:22;5.93;;;4.53;;
10963;SDS011;5534;48.784;9.190;2022-12-07T02:11:48;6.40;;;4.70;;
10963;SDS011;5534;48.784;9.190;2022-12-07T02:14:17;6.70;;;4.80;;
10963;SDS011;5534;48.784;9.190;2022-12-07T02:16:48;8.70;;;5.40;;
10963;SDS011;5534;48.784;9.190;2022-12-07T02:27:47;9.10;;;6.00;;
10963;SDS011;5534;48.784;9.190;2022-12-07T02:30:22;6.20;;;4.50;;
10963;SDS011;5534;48.784;9.190;2022-12-07T02:33:06;8.50;;;5.03;;
10963;SDS011;5534;48.784;9.190;2022-12-07T02:35:39;7.83;;;4.80;;
10963;SDS011;5534;48.784;9.190;2022-12-07T02:41:09;7.67;;;5.20;;
10963;SDS011;5534;48.784;9.190;2022-12-07T02:43:59;7.10;;;5.07;;
10963;SDS011;5534;48.784;9.190;2022-12-07T02:46:33;8.73;;;4.93;;
10963;SDS011;5534;48.784;9.190;2022-12-07T02:49:05;7.50;;;5.07;;
10963;SDS011;5534;48.784;9.190;2022-12-07T02:51:33;7.90;;;5.37;;
10963;SDS011;5534;48.784;9.190;2022-12-07T02:54:07;7.30;;;4.93;;
10963;SDS011;5534;48.784;9.190;2022-12-07T02:56:47;6.57;;;4.93;;
10963;SDS011;5534;48.784;9.190;2022-12-07T03:07:22;7.13;;;5.23;;
10963;SDS011;5534;48.784;9.190;2022-12-07T03:10:09;7.40;;;4.80;;
10963;SDS011;5534;48.784;9.190;2022-12-07T03:13:06;7.30;;;5.00;;
10963;SDS011;5534;48.784;9.190;2022-12-07T03:15:46;6.80;;;5.23;;
10963;SDS011;5534;48.784;9.190;2022-12-07T03:18:18;7.37;;;5.10;;
10963;SDS011;5534;48.784;9.190;2022-12-07T03:20:48;7.87;;;5.10;;
10963;SDS011;5534;48.784;9.190;2022-12-07T03:23:17;6.37;;;4.90;;
10963;SDS011;5534;48.784;9.190;2022-12-07T03:25:48;6.17;;;4.90;;
10963;SDS011;5534;48.784;9.190;2022-12-07T03:28:18;6.37;;;4.50;;
10963;SDS011;5534;48.784;9.190;2022-12-07T03:30:49;6.70;;;4.73;;
10963;SDS011;5534;48.784;9.190;2022-12-07T03:33:28;8.57;;;5.00;;
10963;SDS011;5534;48.784;9.190;2022-12-07T03:35:59;6.83;;;4.67;;
10963;SDS011;5534;48.784;9.190;2022-12-07T03:38:38;7.80;;;5.03;;
10963;SDS011;5534;48.784;9.190;2022-12-07T03:41:18;6.77;;;4.40;;
10963;SDS011;5534;48.784;9.190;2022-12-07T03:43:49;7.63;;;5.10;;
10963;SDS011;5534;48.784;9.190;2022-12-07T03:48:47;6.40;;;4.63;;
10963;SDS011;5534;48.784;9.190;2022-12-07T03:56:54;7.93;;;5.43;;
10963;SDS011;5534;48.784;9.190;2022-12-07T03:59:22;6.83;;;5.00;;
10963;SDS011;5534;48.784;9.190;2022-12-07T04:01:53;7.60;;;4.70;;
10963;SDS011;5534;48.784;9.190;2022-12-07T04:04:21;7.37;;;4.60;;
10963;SDS011;5534;48.784;9.190;2022-12-07T04:06:48;5.67;;;4.63;;
10963;SDS011;5534;48.784;9.190;2022-12-07T04:09:14;6.20;;;4.63;;
10963;SDS011;5534;48.784;9.190;2022-12-07T04:11:40;7.53;;;5.13;;
10963;SDS011;5534;48.784;9.190;2022-12-07T04:14:06;6.43;;;4.70;;
10963;SDS011;5534;48.784;9.190;2022-12-07T04:16:44;7.00;;;4.50;;
10963;SDS011;5534;48.784;9.190;2022-12-07T04:19:14;6.57;;;4.90;;
10963;SDS011;5534;48.784;9.190;2022-12-07T04:21:41;8.30;;;4.63;;
10963;SDS011;5534;48.784;9.190;2022-12-07T04:24:07;6.77;;;4.80;;
10963;SDS011;5534;48.784;9.190;2022-12-07T04:26:33;6.97;;;4.80;;
10963;SDS011;5534;48.784;9.190;2022-12-07T04:28:59;6.40;;;4.60;;
10963;SDS011;5534;48.784;9.190;2022-12-07T04:31:25;7.53;;;4.60;;
10963;SDS011;5534;48.784;9.190;2022-12-07T04:33:51;5.13;;;4.17;;
10963;SDS011;5534;48.784;9.190;2022-12-07T04:36:16;5.53;;;3.90;;
10963;SDS011;5534;48.784;9.190;2022-12-07T04:38:45;7.57;;;4.70;;
10963;SDS011;5534;48.784;9.190;2022-12-07T04:41:11;6.50;;;4.53;;
10963;SDS011;5534;48.784;9.190;2022-12-07T04:43:37;8.37;;;4.97;;
10963;SDS011;5534;48.784;9.190;2022-12-07T04:46:03;5.63;;;4.40;;
10963;SDS011;5534;48.784;9.190;2022-12-07T04:48:29;7.53;;;5.60;;
10963;SDS011;5534;48.784;9.190;2022-12-07T04:50:55;7.20;;;4.63;;
10963;SDS011;5534;48.784;9.190;2022-12-07T04:53:21;7.00;;;5.10;;
10963;SDS011;5534;48.784;9.190;2022-12-07T04:55:47;5.30;;;4.00;;
10963;SDS011;5534;48.784;9.190;2022-12-07T04:58:13;5.93;;;4.03;;
10963;SDS011;5534;48.784;9.190;2022-12-07T05:00:39;5.40;;;3.83;;
10963;SDS011;5534;48.784;9.190;2022-12-07T05:03:05;4.90;;;3.87;;
10963;SDS011;5534;48.784;9.190;2022-12-07T05:05:31;5.27;;;3.50;;
10963;SDS011;5534;48.784;9.190;2022-12-07T05:07:57;5.47;;;3.77;;
10963;SDS011;5534;48.784;9.190;2022-12-07T05:10:23;5.30;;;3.77;;
10963;SDS011;5534;48.784;9.190;2022-12-07T05:12:49;4.97;;;3.70;;
10963;SDS011;5534;48.784;9.190;2022-12-07T05:15:15;4.50;;;3.70;;
10963;SDS011;5534;48.784;9.190;2022-12-07T05:17:41;5.17;;;4.10;;
10963;SDS011;5534;48.784;9.190;2022-12-07T05:20:07;5.33;;;4.03;;
10963;SDS011;5534;48.784;9.190;2022-12-07T05:22:34;3.90;;;3.37;;
10963;SDS011;5534;48.784;9.190;2022-12-07T05:24:59;5.77;;;3.77;;
10963;SDS011;5534;48.784;9.190;2022-12-07T05:27:25;5.07;;;3.53;;
10963;SDS011;5534;48.784;9.190;2022-12-07T05:29:51;4.80;;;3.60;;
10963;SDS011;5534;48.784;9.190;2022-12-07T05:32:17;5.00;;;3.97;;
10963;SDS011;5534;48.784;9.190;2022-12-07T05:34:43;4.53;;;3.70;;
10963;SDS011;5534;48.784;9.190;2022-12-07T05:37:08;5.00;;;3.80;;
10963;SDS011;5534;48.784;9.190;2022-12-07T05:39:35;5.07;;;3.77;;
10963;SDS011;5534;48.784;9.190;2022-12-07T05:42:03;5.43;;;3.77;;
10963;SDS011;5534;48.784;9.190;2022-12-07T05:44:42;8.50;;;4.13;;
10963;SDS011;5534;48.784;9.190;2022-12-07T05:47:13;5.43;;;3.77;;
10963;SDS011;5534;48.784;9.190;2022-12-07T05:49:40;5.87;;;4.40;;
10963;SDS011;5534;48.784;9.190;2022-12-07T05:52:05;5.97;;;3.97;;
10963;SDS011;5534;48.784;9.190;2022-12-07T05:54:31;5.93;;;4.23;;
10963;SDS011;5534;48.784;9.190;2022-12-07T05:56:58;6.73;;;4.77;;
10963;SDS011;5534;48.784;9.190;2022-12-07T05:59:24;6.90;;;4.87;;
10963;SDS011;5534;48.784;9.190;2022-12-07T06:01:58;6.23;;;4.30;;
10963;SDS011;5534;48.784;9.190;2022-12-07T06:04:27;6.30;;;3.77;;
10963;SDS011;5534;48.784;9.190;2022-12-07T06:06:54;5.83;;;4.13;;
10963;SDS011;5534;48.784;9.190;2022-12-07T06:09:21;5.80;;;3.93;;
10963;SDS011;5534;48.784;9.190;2022-12-07T06:11:48;6.23;;;4.00;;
10963;SDS011;5534;48.784;9.190;2022-12-07T06:14:32;7.07;;;4.27;;
10963;SDS011;5534;48.784;9.190;2022-12-07T06:16:58;6.33;;;4.83;;
10963;SDS011;5534;48.784;9.190;2022-12-07T06:19:24;6.27;;;4.03;;
10963;SDS011;5534;48.784;9.190;2022-12-07T06:21:50;5.90;;;4.37;;
10963;SDS011;5534;48.784;9.190;2022-12-07T06:24:16;5.17;;;3.90;;
10963;SDS011;5534;48.784;9.190;2022-12-07T06:26:43;5.63;;;3.97;;
10963;SDS011;5534;48.784;9.190;2022-12-07T06:29:09;7.93;;;4.37;;
10963;SDS011;5534;48.784;9.190;2022-12-07T06:31:38;6.60;;;4.73;;
10963;SDS011;5534;48.784;9.190;2022-12-07T06:34:06;7.30;;;4.93;;
10963;SDS011;5534;48.784;9.190;2022-12-07T06:36:37;8.40;;;4.53;;
10963;SDS011;5534;48.784;9.190;2022-12-07T06:39:03;6.33;;;4.50;;
10963;SDS011;5534;48.784;9.190;2022-12-07T06:41:31;7.40;;;4.57;;
10963;SDS011;5534;48.784;9.190;2022-12-07T06:43:59;8.10;;;4.30;;
10963;SDS011;5534;48.784;9.190;2022-12-07T06:46:25;6.17;;;4.33;;
10963;SDS011;5534;48.784;9.190;2022-12-07T06:48:50;5.23;;;3.73;;
10963;SDS011;5534;48.784;9.190;2022-12-07T06:51:16;7.67;;;4.00;;
10963;SDS011;5534;48.784;9.190;2022-12-07T06:53:42;8.50;;;4.53;;
10963;SDS011;5534;48.784;9.190;2022-12-07T06:56:08;6.70;;;4.40;;
10963;SDS011;5534;48.784;9.190;2022-12-07T06:58:34;6.87;;;4.23;;
10963;SDS011;5534;48.784;9.190;2022-12-07T07:00:59;5.87;;;3.80;;
10963;SDS011;5534;48.784;9.190;2022-12-07T07:03:25;5.23;;;3.40;;
10963;SDS011;5534;48.784;9.190;2022-12-07T07:05:51;5.83;;;3.57;;
10963;SDS011;5534;48.784;9.190;2022-12-07T07:08:17;6.00;;;4.00;;
10963;SDS011;5534;48.784;9.190;2022-12-07T07:10:42;3.53;;;2.87;;
10963;SDS011;5534;48.784;9.190;2022-12-07T07:13:08;4.53;;;3.40;;
10963;SDS011;5534;48.784;9.190;2022-12-07T07:15:36;6.10;;;3.63;;
10963;SDS011;5534;48.784;9.190;2022-12-07T07:18:03;6.47;;;3.73;;
10963;SDS011;5534;48.784;9.190;2022-12-07T07:20:29;5.37;;;3.57;;
10963;SDS011;5534;48.784;9.190;2022-12-07T07:22:55;5.30;;;3.20;;
10963;SDS011;5534;48.784;9.190;2022-12-07T07:25:21;4.20;;;3.27;;
10963;SDS011;5534;48.784;9.190;2022-12-07T07:30:12;3.87;;;3.03;;
10963;SDS011;5534;48.784;9.190;2022-12-07T07:32:38;6.20;;;3.30;;
10963;SDS011;5534;48.784;9.190;2022-12-07T07:35:04;5.20;;;3.47;;
10963;SDS011;5534;48.784;9.190;2022-12-07T07:37:31;4.23;;;3.03;;
10963;SDS011;5534;48.784;9.190;2022-12-07T07:39:57;4.93;;;3.40;;
10963;SDS011;5534;48.784;9.190;2022-12-07T07:42:23;6.07;;;3.23;;
10963;SDS011;5534;48.784;9.190;2022-12-07T07:44:48;5.03;;;3.40;;
10963;SDS011;5534;48.784;9.190;2022-12-07T07:47:14;4.77;;;3.80;;
10963;SDS011;5534;48.784;9.190;2022-12-07T07:49:40;7.53;;;3.67;;
10963;SDS011;5534;48.784;9.190;2022-12-07T07:52:06;3.63;;;2.73;;
10963;SDS011;5534;48.784;9.190;2022-12-07T07:54:32;5.60;;;4.10;;
10963;SDS011;5534;48.784;9.190;2022-12-07T07:56:57;6.80;;;4.03;;
10963;SDS011;5534;48.784;9.190;2022-12-07T07:59:23;4.40;;;3.30;;
10963;SDS011;5534;48.784;9.190;2022-12-07T08:01:50;6.40;;;3.37;;
10963;SDS011;5534;48.784;9.190;2022-12-07T08:04:16;4.27;;;3.20;;
10963;SDS011;5534;48.784;9.190;2022-12-07T08:06:43;5.73;;;3.43;;
10963;SDS011;5534;48.784;9.190;2022-12-07T08:09:09;4.77;;;3.37;;
10963;SDS011;5534;48.784;9.190;2022-12-07T08:11:35;5.10;;;3.30;;
10963;SDS011;5534;48.784;9.190;2022-12-07T08:14:01;7.43;;;4.77;;
10963;SDS011;5534;48.784;9.190;2022-12-07T08:16:28;8.27;;;4.20;;
10963;SDS011;5534;48.784;9.190;2022-12-07T08:18:53;3.80;;;2.77;;
10963;SDS011;5534;48.784;9.190;2022-12-07T08:21:19;5.43;;;3.20;;
10963;SDS011;5534;48.784;9.190;2022-12-07T08:23:45;4.63;;;3.37;;
10963;SDS011;5534;48.784;9.190;2022-12-07T08:26:12;4.53;;;3.07;;
10963;SDS011;5534;48.784;9.190;2022-12-07T08:28:39;5.10;;;3.10;;
10963;SDS011;5534;48.784;9.190;2022-12-07T08:31:07;5.33;;;3.43;;
10963;SDS011;5534;48.784;9.190;2022-12-07T08:33:36;6.83;;;4.07;;
10963;SDS011;5534;48.784;9.190;2022-12-07T08:36:04;6.00;;;4.20;;
10963;SDS011;5534;48.784;9.190;2022-12-07T08:38:33;5.30;;;3.87;;
10963;SDS011;5534;48.784;9.190;2022-12-07T08:41:00;5.77;;;3.90;;
10963;SDS011;5534;48.784;9.190;2022-12-07T08:43:26;5.73;;;4.13;;
10963;SDS011;5534;48.784;9.190;2022-12-07T08:46:35;6.73;;;3.80;;
10963;SDS011;5534;48.784;9.190;2022-12-07T08:51:21;5.83;;;3.73;;
10963;SDS011;5534;48.784;9.190;2022-12-07T08:53:48;6.07;;;3.80;;
10963;SDS011;5534;48.784;9.190;2022-12-07T08:56:15;6.70;;;3.90;;
10963;SDS011;5534;48.784;9.190;2022-12-07T08:58:41;6.60;;;3.70;;
10963;SDS011;5534;48.784;9.190;2022-12-07T09:01:07;5.80;;;3.90;;
10963;SDS011;5534;48.784;9.190;2022-12-07T09:03:33;5.20;;;3.67;;
10963;SDS011;5534;48.784;9.190;2022-12-07T09:05:59;7.23;;;4.20;;
10963;SDS011;5534;48.784;9.190;2022-12-07T09:08:31;4.67;;;3.53;;
10963;SDS011;5534;48.784;9.190;2022-12-07T09:11:00;4.37;;;3.40;;
10963;SDS011;5534;48.784;9.190;2022-12-07T09:13:26;6.57;;;3.70;;
10963;SDS011;5534;48.784;9.190;2022-12-07T09:15:52;4.70;;;3.37;;
10963;SDS011;5534;48.784;9.190;2022-12-07T09:18:18;5.10;;;4.03;;
10963;SDS011;5534;48.784;9.190;2022-12-07T09:20:44;5.87;;;3.33;;
10963;SDS011;5534;48.784;9.190;2022-12-07T09:23:10;10.93;;;7.00;;
10963;SDS011;5534;48.784;9.190;2022-12-07T09:25:36;5.57;;;3.83;;
10963;SDS011;5534;48.784;9.190;2022-12-07T09:28:01;3.90;;;2.53;;
10963;SDS011;5534;48.784;9.190;2022-12-07T09:30:28;4.63;;;3.00;;
10963;SDS011;5534;48.784;9.190;2022-12-07T09:32:57;3.83;;;2.80;;
10963;SDS011;5534;48.784;9.190;2022-12-07T09:35:23;4.50;;;2.83;;
10963;SDS011;5534;48.784;9.190;2022-12-07T09:37:50;5.47;;;2.50;;
10963;SDS011;5534;48.784;9.190;2022-12-07T09:40:16;6.33;;;3.73;;
10963;SDS011;5534;48.784;9.190;2022-12-07T09:42:44;4.20;;;2.90;;
10963;SDS011;5534;48.784;9.190;2022-12-07T09:45:27;4.67;;;2.70;;
10963;SDS011;5534;48.784;9.190;2022-12-07T09:47:59;2.97;;;2.60;;
10963;SDS011;5534;48.784;9.190;2022-12-07T09:50:28;6.67;;;3.83;;
10963;SDS011;5534;48.784;9.190;2022-12-07T09:55:45;3.60;;;2.53;;
10963;SDS011;5534;48.784;9.190;2022-12-07T09:58:32;6.00;;;3.37;;
10963;SDS011;5534;48.784;9.190;2022-12-07T10:03:37;4.83;;;3.30;;
10963;SDS011;5534;48.784;9.190;2022-12-07T10:06:04;5.63;;;3.53;;
10963;SDS011;5534;48.784;9.190;2022-12-07T10:08:32;5.53;;;3.20;;
10963;SDS011;5534;48.784;9.190;2022-12-07T10:10:59;4.00;;;2.70;;
10963;SDS011;5534;48.784;9.190;2022-12-07T10:13:35;5.20;;;2.67;;
10963;SDS011;5534;48.784;9.190;2022-12-07T10:16:03;8.20;;;4.97;;
10963;SDS011;5534;48.784;9.190;2022-12-07T10:18:39;6.27;;;3.93;;
10963;SDS011;5534;48.784;9.190;2022-12-07T10:21:22;10.63;;;6.90;;
10963;SDS011;5534;48.784;9.190;2022-12-07T10:24:03;6.67;;;3.80;;
10963;SDS011;5534;48.784;9.190;2022-12-07T10:26:40;4.80;;;3.00;;
10963;SDS011;5534;48.784;9.190;2022-12-07T10:29:21;3.00;;;2.40;;
10963;SDS011;5534;48.784;9.190;2022-12-07T10:31:52;3.50;;;2.10;;
10963;SDS011;5534;48.784;9.190;2022-12-07T10:34:29;4.63;;;2.97;;
10963;SDS011;5534;48.784;9.190;2022-12-07T10:39:54;3.43;;;2.40;;
10963;SDS011;5534;48.784;9.190;2022-12-07T10:42:22;3.10;;;2.00;;
10963;SDS011;5534;48.784;9.190;2022-12-07T10:45:08;3.67;;;2.13;;
10963;SDS011;5534;48.784;9.190;2022-12-07T10:50:47;2.47;;;1.87;;
10963;SDS011;5534;48.784;9.190;2022-12-07T10:53:36;5.73;;;3.90;;
10963;SDS011;5534;48.784;9.190;2022-12-07T11:04:21;6.47;;;3.00;;
10963;SDS011;5534;48.784;9.190;2022-12-07T11:07:11;5.43;;;2.87;;
10963;SDS011;5534;48.784;9.190;2022-12-07T11:09:59;6.90;;;3.07;;
10963;SDS011;5534;48.784;9.190;2022-12-07T11:12:52;3.97;;;2.57;;
10963;SDS011;5534;48.784;9.190;2022-12-07T11:21:19;3.03;;;1.97;;
10963;SDS011;5534;48.784;9.190;2022-12-07T11:24:10;3.20;;;2.27;;
10963;SDS011;5534;48.784;9.190;2022-12-07T11:32:21;2.17;;;1.53;;
10963;SDS011;5534;48.784;9.190;2022-12-07T11:40:46;2.00;;;1.60;;
10963;SDS011;5534;48.784;9.190;2022-12-07T11:48:38;2.10;;;1.47;;
10963;SDS011;5534;48.784;9.190;2022-12-07T11:51:11;2.87;;;1.70;;
10963;SDS011;5534;48.784;9.190;2022-12-07T11:53:46;1.93;;;1.63;;
10963;SDS011;5534;48.784;9.190;2022-12-07T11:56:19;2.77;;;2.00;;
10963;SDS011;5534;48.784;9.190;2022-12-07T12:04:10;5.33;;;2.47;;
10963;SDS011;5534;48.784;9.190;2022-12-07T12:06:52;3.93;;;2.60;;
10963;SDS011;5534;48.784;9.190;2022-12-07T12:09:34;6.37;;;4.20;;
10963;SDS011;5534;48.784;9.190;2022-12-07T12:15:20;5.17;;;3.50;;
10963;SDS011;5534;48.784;9.190;2022-12-07T12:20:38;5.40;;;3.23;;
10963;SDS011;5534;48.784;9.190;2022-12-07T12:24:03;4.50;;;3.43;;
10963;SDS011;5534;48.784;9.190;2022-12-07T12:26:07;5.97;;;3.37;;
10963;SDS011;5534;48.784;9.190;2022-12-07T12:29:03;6.13;;;3.57;;
10963;SDS011;5534;48.784;9.190;2022-12-07T12:34:03;4.70;;;3.23;;
10963;SDS011;5534;48.784;9.190;2022-12-07T12:36:49;15.57;;;10.47;;
10963;SDS011;5534;48.784;9.190;2022-12-07T12:39:15;4.87;;;3.60;;
10963;SDS011;5534;48.784;9.190;2022-12-07T12:46:45;3.83;;;3.00;;
10963;SDS011;5534;48.784;9.190;2022-12-07T12:57:36;3.53;;;2.67;;
10963;SDS011;5534;48.784;9.190;2022-12-07T13:00:15;5.47;;;3.10;;
10963;SDS011;5534;48.784;9.190;2022-12-07T13:02:48;4.33;;;3.23;;
10963;SDS011;5534;48.784;9.190;2022-12-07T13:05:20;4.47;;;2.97;;
10963;SDS011;5534;48.784;9.190;2022-12-07T13:07:52;3.73;;;3.07;;
10963;SDS011;5534;48.784;9.190;2022-12-07T13:15:39;4.40;;;2.70;;
10963;SDS011;5534;48.784;9.190;2022-12-07T13:20:57;3.73;;;2.63;;
10963;SDS011;5534;48.784;9.190;2022-12-07T13:23:33;5.13;;;2.90;;
10963;SDS011;5534;48.784;9.190;2022-12-07T13:29:16;6.63;;;3.10;;
10963;SDS011;5534;48.784;9.190;2022-12-07T13:31:43;5.20;;;3.20;;
10963;SDS011;5534;48.784;9.190;2022-12-07T13:37:09;5.53;;;3.37;;
10963;SDS011;5534;48.784;9.190;2022-12-07T13:39:49;4.23;;;3.00;;
10963;SDS011;5534;48.784;9.190;2022-12-07T13:42:33;11.33;;;5.03;;
10963;SDS011;5534;48.784;9.190;2022-12-07T13:45:17;9.90;;;5.03;;
10963;SDS011;5534;48.784;9.190;2022-12-07T13:48:08;8.83;;;4.77;;
10963;SDS011;5534;48.784;9.190;2022-12-07T13:50:59;5.37;;;3.60;;
10963;SDS011;5534;48.784;9.190;2022-12-07T13:53:27;5.90;;;3.80;;
10963;SDS011;5534;48.784;9.190;2022-12-07T13:55:56;4.90;;;3.63;;
10963;SDS011;5534;48.784;9.190;2022-12-07T13:58:26;13.07;;;8.57;;
10963;SDS011;5534;48.784;9.190;2022-12-07T14:00:56;5.57;;;3.97;;
10963;SDS011;5534;48.784;9.190;2022-12-07T14:03:32;6.70;;;4.57;;
10963;SDS011;5534;48.784;9.190;2022-12-07T14:06:05;5.13;;;3.37;;
10963;SDS011;5534;48.784;9.190;2022-12-07T14:08:43;4.13;;;3.37;;
10963;SDS011;5534;48.784;9.190;2022-12-07T14:11:13;6.17;;;3.53;;
10963;SDS011;5534;48.784;9.190;2022-12-07T14:14:10;6.27;;;3.77;;
10963;SDS011;5534;48.784;9.190;2022-12-07T14:16:35;5.40;;;3.23;;
10963;SDS011;5534;48.784;9.190;2022-12-07T14:19:05;5.27;;;3.90;;
10963;SDS011;5534;48.784;9.190;2022-12-07T14:22:05;5.87;;;3.53;;
10963;SDS011;5534;48.784;9.190;2022-12-07T14:24:43;5.47;;;3.00;;
10963;SDS011;5534;48.784;9.190;2022-12-07T14:27:22;7.70;;;3.20;;
10963;SDS011;5534;48.784;9.190;2022-12-07T14:29:51;4.67;;;3.27;;
10963;SDS011;5534;48.784;9.190;2022-12-07T14:32:21;5.47;;;3.00;;
10963;SDS011;5534;48.784;9.190;2022-12-07T14:35:03;5.43;;;3.17;;
10963;SDS011;5534;48.784;9.190;2022-12-07T14:37:35;3.87;;;2.87;;
10963;SDS011;5534;48.784;9.190;2022-12-07T14:40:01;7.33;;;3.43;;
10963;SDS011;5534;48.784;9.190;2022-12-07T14:42:28;5.27;;;3.03;;
10963;SDS011;5534;48.784;9.190;2022-12-07T14:44:55;5.10;;;3.17;;
10963;SDS011;5534;48.784;9.190;2022-12-07T14:47:23;4.57;;;3.27;;
10963;SDS011;5534;48.784;9.190;2022-12-07T14:49:50;4.57;;;2.90;;
10963;SDS011;5534;48.784;9.190;2022-12-07T14:52:17;4.43;;;3.13;;
10963;SDS011;5534;48.784;9.190;2022-12-07T14:54:50;5.17;;;3.63;;
10963;SDS011;5534;48.784;9.190;2022-12-07T14:57:16;7.43;;;3.87;;
10963;SDS011;5534;48.784;9.190;2022-12-07T14:59:42;10.70;;;3.70;;
10963;SDS011;5534;48.784;9.190;2022-12-07T15:02:09;6.10;;;3.63;;
10963;SDS011;5534;48.784;9.190;2022-12-07T15:04:36;3.80;;;3.10;;
10963;SDS011;5534;48.784;9.190;2022-12-07T15:07:03;5.77;;;4.10;;
10963;SDS011;5534;48.784;9.190;2022-12-07T15:09:31;4.67;;;3.20;;
10963;SDS011;5534;48.784;9.190;2022-12-07T15:11:57;5.70;;;3.57;;
10963;SDS011;5534;48.784;9.190;2022-12-07T15:14:23;5.87;;;3.57;;
10963;SDS011;5534;48.784;9.190;2022-12-07T15:16:49;5.47;;;4.07;;
10963;SDS011;5534;48.784;9.190;2022-12-07T15:19:16;7.00;;;3.10;;
10963;SDS011;5534;48.784;9.190;2022-12-07T15:21:43;4.90;;;3.10;;
10963;SDS011;5534;48.784;9.190;2022-12-07T15:24:11;4.90;;;2.97;;
10963;SDS011;5534;48.784;9.190;2022-12-07T15:26:37;4.63;;;3.00;;
10963;SDS011;5534;48.784;9.190;2022-12-07T15:29:04;4.07;;;3.00;;
10963;SDS011;5534;48.784;9.190;2022-12-07T15:31:31;4.10;;;2.90;;
10963;SDS011;5534;48.784;9.190;2022-12-07T15:33:57;3.67;;;2.77;;
10963;SDS011;5534;48.784;9.190;2022-12-07T15:36:24;4.13;;;3.10;;
10963;SDS011;5534;48.784;9.190;2022-12-07T15:38:52;5.00;;;3.13;;
10963;SDS011;5534;48.784;9.190;2022-12-07T15:41:19;5.27;;;3.07;;
10963;SDS011;5534;48.784;9.190;2022-12-07T15:43:45;5.47;;;3.00;;
10963;SDS011;5534;48.784;9.190;2022-12-07T15:46:30;7.13;;;3.23;;
10963;SDS011;5534;48.784;9.190;2022-12-07T15:49:02;5.07;;;2.80;;
10963;SDS011;5534;48.784;9.190;2022-12-07T15:51:29;5.53;;;3.50;;
10963;SDS011;5534;48.784;9.190;2022-12-07T15:53:57;4.40;;;3.13;;
10963;SDS011;5534;48.784;9.190;2022-12-07T15:56:23;5.33;;;3.30;;
10963;SDS011;5534;48.784;9.190;2022-12-07T15:58:49;4.63;;;3.33;;
10963;SDS011;5534;48.784;9.190;2022-12-07T16:01:16;4.93;;;3.30;;
10963;SDS011;5534;48.784;9.190;2022-12-07T16:03:44;6.70;;;3.37;;
10963;SDS011;5534;48.784;9.190;2022-12-07T16:06:10;5.00;;;3.30;;
10963;SDS011;5534;48.784;9.190;2022-12-07T16:08:41;5.70;;;3.70;;
10963;SDS011;5534;48.784;9.190;2022-12-07T16:11:09;6.43;;;3.73;;
10963;SDS011;5534;48.784;9.190;2022-12-07T16:13:35;6.30;;;4.17;;
10963;SDS011;5534;48.784;9.190;2022-12-07T16:16:08;5.20;;;3.83;;
10963;SDS011;5534;48.784;9.190;2022-12-07T16:18:38;4.67;;;3.43;;
10963;SDS011;5534;48.784;9.190;2022-12-07T16:21:04;5.27;;;3.83;;
10963;SDS011;5534;48.784;9.190;2022-12-07T16:23:30;6.53;;;3.90;;
10963;SDS011;5534;48.784;9.190;2022-12-07T16:26:06;5.30;;;3.53;;
10963;SDS011;5534;48.784;9.190;2022-12-07T16:28:33;7.03;;;4.37;;
10963;SDS011;5534;48.784;9.190;2022-12-07T16:31:00;9.07;;;4.80;;
10963;SDS011;5534;48.784;9.190;2022-12-07T16:33:38;6.67;;;4.40;;
10963;SDS011;5534;48.784;9.190;2022-12-07T16:36:07;6.70;;;5.20;;
10963;SDS011;5534;48.784;9.190;2022-12-07T16:38:35;6.43;;;4.40;;
10963;SDS011;5534;48.784;9.190;2022-12-07T16:41:01;7.90;;;4.27;;
10963;SDS011;5534;48.784;9.190;2022-12-07T16:43:27;6.20;;;4.37;;
10963;SDS011;5534;48.784;9.190;2022-12-07T16:45:53;6.00;;;4.20;;
10963;SDS011;5534;48.784;9.190;2022-12-07T16:48:19;7.23;;;4.60;;
10963;SDS011;5534;48.784;9.190;2022-12-07T16:50:45;8.03;;;5.00;;
10963;SDS011;5534;48.784;9.190;2022-12-07T16:53:12;12.13;;;7.60;;
10963;SDS011;5534;48.784;9.190;2022-12-07T16:55:39;14.33;;;6.90;;
10963;SDS011;5534;48.784;9.190;2022-12-07T16:58:06;10.83;;;6.10;;
10963;SDS011;5534;48.784;9.190;2022-12-07T17:00:33;11.80;;;7.67;;
10963;SDS011;5534;48.784;9.190;2022-12-07T17:02:59;12.37;;;6.17;;
10963;SDS011;5534;48.784;9.190;2022-12-07T17:05:25;9.83;;;6.07;;
10963;SDS011;5534;48.784;9.190;2022-12-07T17:07:53;9.50;;;6.30;;
10963;SDS011;5534;48.784;9.190;2022-12-07T17:10:20;8.00;;;5.77;;
10963;SDS011;5534;48.784;9.190;2022-12-07T17:12:46;8.67;;;5.33;;
10963;SDS011;5534;48.784;9.190;2022-12-07T17:15:11;9.57;;;7.20;;
10963;SDS011;5534;48.784;9.190;2022-12-07T17:17:44;8.37;;;5.80;;